Shreveport, Louisiana
Current Conditions -  °F | °C
As of 11:53 AM on Tuesday 21 Oct 2014 (Local Time) from KDTN Reporting Station
Few Clouds Few Clouds  
Wind Chill: 75°   Ceiling: Unl
Heat Index: 75°   Visibility: 10mi
Dew Point: 56°   Wind: 3mph
Humidity: 51%   Direction: NA
Pressure: 30.11"   Gusts: NA
Location:  32.51°N, 93.75°W
Report Text: KDTN 211653Z VRB03KT 10SM FEW044 24/13 A3011 RMK AO2 SLP195 T02390133
Loading
Personal Weather Stations






























Interactive Weather Map
Tropical Storm Tracking
New forecast layout! Learn more

10-Day Weather Forecast

Advertisements
Track Severe Weather on mobile